Pagina principale
METAR-TAF:

METAR-TAF

Aeroporti :

Reggio Calabria, Italia

Aeroporto di Reggio Calabria

latitudine: 38-04N, longitudine: 015-39E, altezza: 11 m

Osservazione

Il bollettino è stato emesso 1 ora e 1 minuti fa, alle 14:50 UTC
Vento 9 kt da nord/nord-ovest
Temperature 17°C
Umidità 59%
Pressione 1014 hPa
Visibilità 10 km o più
Poco nuvoloso ad un'altezza di 3000 ft
Nubi sparse ad un'altezza di 5000 ft

METAR: LICR 191450Z 33009KT 9999 FEW030 SCT050 17/09 Q1014

Ora: 16:51 (15:51 UTC)

Previsione

Il bollettino è stato emesso 4 ore e 51 minuti fa, alle 11:00 UTC
Previsione valida dal 19 alle 12 UTC al 20 alle 12 UTC
Vento 12 kt da nord
Visibilità 10 km o più
Poco nuvoloso ad un'altezza di 2000 ft
Nubi sparse ad un'altezza di 4000 ft
Temporaneamente
dal 19 alle 12 UTC al 19 alle 18 UTC
Visibilità: 4000 m
pioggia

TAF: LICR 191100Z 1912/2012 35012KT 9999 FEW020 SCT040 TEMPO 1912/1918 4000 RA

Osservazioni e previsioni meteorologiche di più di 4000 aeroporti (messaggi METAR e TAF).

Le stazioni disponibili sono rappresentate dai dischi gialli e rossi sulla carta.

Puntare il mouse per vedere il nome della stazione.

Clicca sopra per visualizzare le osservazioni e previsioni meteorologiche.

Per cambiare la mappa : fare clic sui pulsanti verdi con una croce nera per ingrandire, il pulsante verde con un trattino per diminuire, o sulla freccia verde per le mappe adiacenti.


METAR-TAF: